Buoy 46770

sailwx.info

Track history (hours):
 
Tides and Currents Weather Stations Pressure Air Temp Water Temp Dewpoint Dewpoint Depression Visibility Wind Speed Wind Dir Waves Ship Positions

Drifting buoy 46770

Last reported at 2014-Jul-23 19:30 UTC. Time now 2014-Jul-23 23:44 UTC.
Position N 51°21' E 171°48'.

Barometer 1031.5 mb
Water temperature 11.3 ° C

Date/timePositionNaut miles runAvg speedWind from/ knotsBaromVisibWave heightAir tempDewpointWater temp
2014-Jul-23 19:30N 51°21' E 171°48'1 0.4 1031.5 11.3
2014-Jul-23 16:30N 51°22' E 171°48'3 0.7 1030.7 11.4
2014-Jul-23 12:30N 51°24' E 171°46'1 0.3 1030.3 11.4
2014-Jul-23 07:30N 51°26' E 171°45'1 1.3 1029.1 11.5
2014-Jul-23 06:30N 51°27' E 171°45'1 0.5 1028.9 11.5
2014-Jul-23 04:30N 51°28' E 171°44'2 0.4 1028.5 11.4
2014-Jul-22 23:30N 51°30' E 171°44'3 0.8 1027.5 11.2
2014-Jul-22 19:30N 51°32' E 171°41'0 0.0 1026.7 11.2
2014-Jul-22 18:30N 51°32' E 171°41'2 0.7 1026.1 11.2
2014-Jul-22 15:30N 51°34' E 171°39'1 0.7 1025.2 11.2
2014-Jul-22 13:30N 51°35' E 171°38'1 0.3 1024.7 11.2
2014-Jul-22 09:30N 51°36' E 171°37'3 0.8 1024.2 11.2
2014-Jul-22 05:30N 51°38' E 171°34'1 0.3 1022.9 11.3
2014-Jul-22 01:30N 51°39' E 171°32'4 0.5 1022.3 11.3
2014-Jul-21 18:30N 51°42' E 171°28'1 1.1 1021.1 11.2
2014-Jul-21 17:30N 51°42' E 171°27'0 0.4 1020.8 11.2
2014-Jul-21 16:30N 51°43' E 171°26'1 1.1 1020.6 11.2
2014-Jul-21 15:30N 51°43' E 171°25'2 0.4 1020.4 11.2
2014-Jul-21 09:30N 51°44' E 171°21'1 0.3 1020.4 11.3
2014-Jul-21 07:30N 51°44' E 171°21'3 0.7 1019.8 11.3
2014-Jul-21 03:30N 51°46' E 171°17'0 0.1 1019.7 11.3
2014-Jul-21 01:30N 51°46' E 171°17'1 1.1 1020.1 11.2
2014-Jul-21 00:30N 51°46' E 171°15'1 0.7 1020.5 11.2
2014-Jul-20 22:30N 51°46' E 171°13'2 0.5 1020.6 11.2
2014-Jul-20 17:30N 51°48' E 171°10'2 1.5 1021.0 11.1
2014-Jul-20 16:30N 51°48' E 171°08'0 0.0 1020.7 11.1
2014-Jul-20 15:30N 51°48' E 171°08'2 0.5 1020.7 11.1
2014-Jul-20 12:30N 51°49' E 171°05'0 0.1 1021.0 11.1
2014-Jul-20 09:30N 51°49' E 171°06'2 0.8 1021.2 11.2
2014-Jul-20 07:30N 51°50' E 171°04'1 0.4 1020.9 11.2
2014-Jul-20 04:30N 51°50' E 171°02'1 1.2 1020.9 11.2
2014-Jul-20 03:30N 51°51' E 171°00'3 0.6 1021.0 11.2
2014-Jul-19 22:30N 51°52' E 170°56'1 0.2 1022.0 10.9
2014-Jul-19 19:30N 51°52' E 170°54'0 0.2 1022.0 10.8
2014-Jul-19 18:30N 51°52' E 170°55'1 0.8 1021.8 10.8
2014-Jul-19 17:30N 51°52' E 170°54'2 0.5 1021.6 10.8
2014-Jul-19 14:30N 51°52' E 170°51'2 0.9 1021.6 10.8
2014-Jul-19 12:30N 51°53' E 170°48'0 0.1 1021.9 10.8
2014-Jul-19 09:30N 51°53' E 170°49'4 0.5 1022.4 10.8
2014-Jul-19 01:30N 51°54' E 170°42'0 0.0 1023.8 10.8
2014-Jul-19 00:30N 51°54' E 170°42'3 0.5 1024.0 10.8
2014-Jul-18 18:30N 51°54' E 170°37'1 0.3 1024.4 10.7
2014-Jul-18 16:30N 51°55' E 170°37'2 0.9 1024.5 10.7
2014-Jul-18 14:30N 51°55' E 170°34'1 0.2 1024.7 10.7
2014-Jul-18 09:30N 51°54' E 170°32'0 0.4 1025.5 10.7
2014-Jul-18 08:30N 51°54' E 170°31'2 0.5 1025.2 10.7
2014-Jul-18 03:30N 51°54' E 170°28'1 0.3 1025.3 10.8
2014-Jul-18 01:30N 51°54' E 170°27'1 0.5 1025.6 10.7
2014-Jul-18 00:30N 51°54' E 170°26'2 0.9 1025.7 10.7
2014-Jul-17 22:30N 51°54' E 170°23'1 0.2 1025.6 10.6
2014-Jul-17 17:30N 51°54' E 170°22'1 0.5 1025.5 10.6
2014-Jul-17 16:30N 51°54' E 170°21'1 0.8 1025.5 10.6
2014-Jul-17 15:30N 51°54' E 170°20'0 0.0 1025.3 10.6
2014-Jul-17 14:30N 51°54' E 170°20'3 0.3 1025.2 10.6
2014-Jul-17 03:30N 51°53' E 170°14'1 0.5 1024.3 10.6
2014-Jul-17 01:30N 51°54' E 170°13'0 0.0 1024.4 10.6
2014-Jul-17 00:30N 51°54' E 170°13'1 0.4 1024.1 10.5
2014-Jul-16 22:30N 51°53' E 170°12'2 0.3 1024.0 10.5
2014-Jul-16 17:30N 51°53' E 170°09'1 0.6 1022.7 10.5
2014-Jul-16 16:30N 51°52' E 170°08'1 0.2 1022.3 10.5
2014-Jul-16 10:30N 51°52' E 170°07'1 0.5 1020.8 10.4
2014-Jul-16 07:30N 51°51' E 170°05'1 0.3 1019.2 10.4
2014-Jul-16 03:30N 51°50' E 170°03'0 0.0 1018.7 10.4
2014-Jul-16 02:30N 51°50' E 170°03'0 0.2 1018.7 10.4
2014-Jul-16 00:30N 51°50' E 170°02'2 0.3 1018.3 10.4
2014-Jul-15 17:30N 51°49' E 169°59'0 0.4 1015.9 10.3
2014-Jul-15 16:30N 51°49' E 169°59'1 0.4 1015.5 10.3
2014-Jul-15 13:30N 51°48' E 169°57'2 0.4 1015.1 10.4
2014-Jul-15 09:30N 51°46' E 169°56'1 0.3 1014.7 10.6
2014-Jul-15 07:30N 51°46' E 169°56'1 0.2 1014.0 10.6
2014-Jul-15 03:30N 51°46' E 169°55'1 0.4 1013.9 10.6
2014-Jul-15 00:30N 51°45' E 169°53'0 0.0 1014.1 10.4
2014-Jul-14 23:30N 51°45' E 169°53'3 0.5 1014.1 10.4
2014-Jul-14 18:30N 51°42' E 169°52'0 0.2 1013.7 10.1
2014-Jul-14 16:30N 51°42' E 169°53'0 0.3 1013.4 10.1
2014-Jul-14 15:30N 51°42' E 169°52'1 0.6 1013.5 10.1
2014-Jul-14 13:30N 51°41' E 169°50'4 0.6 1014.2 10.1
2014-Jul-14 06:30N 51°38' E 169°48'0 0.0 1014.3 10.1
2014-Jul-14 04:30N 51°38' E 169°48'1 0.3 1014.2 10.1
2014-Jul-14 00:30N 51°37' E 169°50'0 0.0 1015.3 10.0
2014-Jul-13 23:30N 51°37' E 169°50'   1015.6 10.1
Track history (hours):
 
Tides and Currents Weather Stations Pressure Air Temp Water Temp Dewpoint Dewpoint Depression Visibility Wind Speed Wind Dir Waves Ship Positions

Drifting buoy 46770

Last reported at 2014-Jul-23 19:30 UTC. Time now 2014-Jul-23 23:44 UTC.
Position N 51°21' E 171°48'.

Barometer 1031.5 mb
Water temperature 11.3 ° C

Date/timePositionNaut miles runAvg speedWind from/ knotsBaromVisibWave heightAir tempDewpointWater temp
2014-Jul-23 19:30N 51°21' E 171°48'1 0.4 1031.5 11.3
2014-Jul-23 16:30N 51°22' E 171°48'3 0.7 1030.7 11.4
2014-Jul-23 12:30N 51°24' E 171°46'1 0.3 1030.3 11.4
2014-Jul-23 07:30N 51°26' E 171°45'1 1.3 1029.1 11.5
2014-Jul-23 06:30N 51°27' E 171°45'1 0.5 1028.9 11.5
2014-Jul-23 04:30N 51°28' E 171°44'2 0.4 1028.5 11.4
2014-Jul-22 23:30N 51°30' E 171°44'3 0.8 1027.5 11.2
2014-Jul-22 19:30N 51°32' E 171°41'0 0.0 1026.7 11.2
2014-Jul-22 18:30N 51°32' E 171°41'2 0.7 1026.1 11.2
2014-Jul-22 15:30N 51°34' E 171°39'1 0.7 1025.2 11.2
2014-Jul-22 13:30N 51°35' E 171°38'1 0.3 1024.7 11.2
2014-Jul-22 09:30N 51°36' E 171°37'3 0.8 1024.2 11.2
2014-Jul-22 05:30N 51°38' E 171°34'1 0.3 1022.9 11.3
2014-Jul-22 01:30N 51°39' E 171°32'4 0.5 1022.3 11.3
2014-Jul-21 18:30N 51°42' E 171°28'1 1.1 1021.1 11.2
2014-Jul-21 17:30N 51°42' E 171°27'0 0.4 1020.8 11.2
2014-Jul-21 16:30N 51°43' E 171°26'1 1.1 1020.6 11.2
2014-Jul-21 15:30N 51°43' E 171°25'2 0.4 1020.4 11.2
2014-Jul-21 09:30N 51°44' E 171°21'1 0.3 1020.4 11.3
2014-Jul-21 07:30N 51°44' E 171°21'3 0.7 1019.8 11.3
2014-Jul-21 03:30N 51°46' E 171°17'0 0.1 1019.7 11.3
2014-Jul-21 01:30N 51°46' E 171°17'1 1.1 1020.1 11.2
2014-Jul-21 00:30N 51°46' E 171°15'1 0.7 1020.5 11.2
2014-Jul-20 22:30N 51°46' E 171°13'2 0.5 1020.6 11.2
2014-Jul-20 17:30N 51°48' E 171°10'2 1.5 1021.0 11.1
2014-Jul-20 16:30N 51°48' E 171°08'0 0.0 1020.7 11.1
2014-Jul-20 15:30N 51°48' E 171°08'2 0.5 1020.7 11.1
2014-Jul-20 12:30N 51°49' E 171°05'0 0.1 1021.0 11.1
2014-Jul-20 09:30N 51°49' E 171°06'2 0.8 1021.2 11.2
2014-Jul-20 07:30N 51°50' E 171°04'1 0.4 1020.9 11.2
2014-Jul-20 04:30N 51°50' E 171°02'1 1.2 1020.9 11.2
2014-Jul-20 03:30N 51°51' E 171°00'3 0.6 1021.0 11.2
2014-Jul-19 22:30N 51°52' E 170°56'1 0.2 1022.0 10.9
2014-Jul-19 19:30N 51°52' E 170°54'0 0.2 1022.0 10.8
2014-Jul-19 18:30N 51°52' E 170°55'1 0.8 1021.8 10.8
2014-Jul-19 17:30N 51°52' E 170°54'2 0.5 1021.6 10.8
2014-Jul-19 14:30N 51°52' E 170°51'2 0.9 1021.6 10.8
2014-Jul-19 12:30N 51°53' E 170°48'0 0.1 1021.9 10.8
2014-Jul-19 09:30N 51°53' E 170°49'4 0.5 1022.4 10.8
2014-Jul-19 01:30N 51°54' E 170°42'0 0.0 1023.8 10.8
2014-Jul-19 00:30N 51°54' E 170°42'3 0.5 1024.0 10.8
2014-Jul-18 18:30N 51°54' E 170°37'1 0.3 1024.4 10.7
2014-Jul-18 16:30N 51°55' E 170°37'2 0.9 1024.5 10.7
2014-Jul-18 14:30N 51°55' E 170°34'1 0.2 1024.7 10.7
2014-Jul-18 09:30N 51°54' E 170°32'0 0.4 1025.5 10.7
2014-Jul-18 08:30N 51°54' E 170°31'2 0.5 1025.2 10.7
2014-Jul-18 03:30N 51°54' E 170°28'1 0.3 1025.3 10.8
2014-Jul-18 01:30N 51°54' E 170°27'1 0.5 1025.6 10.7
2014-Jul-18 00:30N 51°54' E 170°26'2 0.9 1025.7 10.7
2014-Jul-17 22:30N 51°54' E 170°23'1 0.2 1025.6 10.6
2014-Jul-17 17:30N 51°54' E 170°22'1 0.5 1025.5 10.6
2014-Jul-17 16:30N 51°54' E 170°21'1 0.8 1025.5 10.6
2014-Jul-17 15:30N 51°54' E 170°20'0 0.0 1025.3 10.6
2014-Jul-17 14:30N 51°54' E 170°20'3 0.3 1025.2 10.6
2014-Jul-17 03:30N 51°53' E 170°14'1 0.5 1024.3 10.6
2014-Jul-17 01:30N 51°54' E 170°13'0 0.0 1024.4 10.6
2014-Jul-17 00:30N 51°54' E 170°13'1 0.4 1024.1 10.5
2014-Jul-16 22:30N 51°53' E 170°12'2 0.3 1024.0 10.5
2014-Jul-16 17:30N 51°53' E 170°09'1 0.6 1022.7 10.5
2014-Jul-16 16:30N 51°52' E 170°08'1 0.2 1022.3 10.5
2014-Jul-16 10:30N 51°52' E 170°07'1 0.5 1020.8 10.4
2014-Jul-16 07:30N 51°51' E 170°05'1 0.3 1019.2 10.4
2014-Jul-16 03:30N 51°50' E 170°03'0 0.0 1018.7 10.4
2014-Jul-16 02:30N 51°50' E 170°03'0 0.2 1018.7 10.4
2014-Jul-16 00:30N 51°50' E 170°02'2 0.3 1018.3 10.4
2014-Jul-15 17:30N 51°49' E 169°59'0 0.4 1015.9 10.3
2014-Jul-15 16:30N 51°49' E 169°59'1 0.4 1015.5 10.3
2014-Jul-15 13:30N 51°48' E 169°57'2 0.4 1015.1 10.4
2014-Jul-15 09:30N 51°46' E 169°56'1 0.3 1014.7 10.6
2014-Jul-15 07:30N 51°46' E 169°56'1 0.2 1014.0 10.6
2014-Jul-15 03:30N 51°46' E 169°55'1 0.4 1013.9 10.6
2014-Jul-15 00:30N 51°45' E 169°53'0 0.0 1014.1 10.4
2014-Jul-14 23:30N 51°45' E 169°53'3 0.5 1014.1 10.4
2014-Jul-14 18:30N 51°42' E 169°52'0 0.2 1013.7 10.1
2014-Jul-14 16:30N 51°42' E 169°53'0 0.3 1013.4 10.1
2014-Jul-14 15:30N 51°42' E 169°52'1 0.6 1013.5 10.1
2014-Jul-14 13:30N 51°41' E 169°50'4 0.6 1014.2 10.1
2014-Jul-14 06:30N 51°38' E 169°48'0 0.0 1014.3 10.1
2014-Jul-14 04:30N 51°38' E 169°48'1 0.3 1014.2 10.1
2014-Jul-14 00:30N 51°37' E 169°50'0 0.0 1015.3 10.0
2014-Jul-13 23:30N 51°37' E 169°50'   1015.6 10.1

Dump ship's entire track history